Time;durP1;ratioP1;P1;durP2;ratioP2;P2;SDS_P1;SDS_P2;PMS_P1;PMS_P2;Temp;Humidity;BMP_temperature;BMP_pressure;BME280_temperature;BME280_humidity;BME280_pressure;Samples;Min_cycle;Max_cycle;Signal;HPM_P1;HPM_P2
2023/11/03 00:00:32;;;;;;;7.30;4.20;;;;;;;12.11;90.25;98559.05;105839;1259;97957;-77
2023/11/03 00:03:36;;;;;;;7.70;4.60;;;;;;;12.11;90.29;98551.70;105928;1253;98401;-78
2023/11/03 00:06:22;;;;;;;6.50;4.40;;;;;;;12.11;90.00;98555.92;105954;1258;101438;-79
2023/11/03 00:09:08;;;;;;;9.40;4.40;;;;;;;12.11;90.18;98550.79;106160;1253;100379;-79
2023/11/03 00:11:54;;;;;;;6.90;4.50;;;;;;;12.11;89.91;98545.80;105416;1257;98029;-78
2023/11/03 00:14:40;;;;;;;6.30;3.90;;;;;;;12.11;89.96;98544.61;105971;1253;97987;-78
2023/11/03 00:17:26;;;;;;;7.40;4.10;;;;;;;12.11;89.71;98547.14;105694;1253;98477;-79
2023/11/03 00:20:14;;;;;;;7.50;4.30;;;;;;;12.11;89.92;98541.18;105786;1258;101353;-79
2023/11/03 00:23:00;;;;;;;7.20;4.10;;;;;;;12.09;89.61;98537.61;105810;1253;100391;-80
2023/11/03 00:25:47;;;;;;;7.60;4.30;;;;;;;12.09;89.50;98540.67;105772;1254;99276;-78
2023/11/03 00:28:32;;;;;;;8.10;4.00;;;;;;;12.09;89.58;98536.52;106276;1253;97954;-78
2023/11/03 00:31:18;;;;;;;7.70;4.80;;;;;;;12.08;89.41;98533.41;105909;1253;97974;-78
2023/11/03 00:34:05;;;;;;;7.70;4.90;;;;;;;12.07;89.30;98531.95;105591;1258;102777;-79
2023/11/03 00:36:50;;;;;;;9.90;4.80;;;;;;;12.06;89.47;98534.66;105643;1253;99157;-80
2023/11/03 00:39:36;;;;;;;14.40;5.30;;;;;;;12.06;89.51;98532.56;105880;1258;99010;-79
2023/11/03 00:42:21;;;;;;;15.10;6.00;;;;;;;12.05;89.36;98530.10;105443;1260;98052;-79
2023/11/03 00:45:07;;;;;;;11.50;5.70;;;;;;;12.04;89.26;98530.25;105715;1253;98745;-78
2023/11/03 00:47:54;;;;;;;14.50;5.70;;;;;;;12.03;89.26;98532.05;105684;1258;102563;-79
2023/11/03 00:50:39;;;;;;;7.10;4.80;;;;;;;12.02;89.17;98525.27;105828;1253;100205;-79
2023/11/03 00:53:26;;;;;;;10.40;4.90;;;;;;;11.99;89.06;98520.13;105794;1258;97870;-78
2023/11/03 00:56:13;;;;;;;13.10;4.70;;;;;;;11.98;89.11;98518.14;105890;1253;98015;-79
2023/11/03 00:59:00;;;;;;;7.20;5.10;;;;;;;11.97;88.93;98522.88;105740;1256;97964;-79
2023/11/03 01:01:45;;;;;;;9.20;5.00;;;;;;;11.95;88.98;98518.35;105816;1253;102386;-78
2023/11/03 01:04:31;;;;;;;12.30;5.10;;;;;;;11.94;88.73;98511.24;105916;1257;100700;-80
2023/11/03 01:07:17;;;;;;;8.50;5.50;;;;;;;11.94;88.46;98511.41;105911;1253;98043;-78
2023/11/03 01:10:03;;;;;;;7.00;4.90;;;;;;;11.93;88.86;98506.63;105659;1258;97986;-80
2023/11/03 01:12:52;;;;;;;10.50;4.70;;;;;;;11.91;89.35;98506.11;105811;1253;98574;-79
2023/11/03 01:15:37;;;;;;;7.90;4.50;;;;;;;11.88;89.79;98511.01;105689;1253;101434;-79
2023/11/03 01:18:23;;;;;;;9.90;5.00;;;;;;;11.85;90.11;98506.39;105760;1258;100455;-78
2023/11/03 01:21:15;;;;;;;6.90;4.40;;;;;;;11.82;90.26;98508.53;106392;1253;99256;-80
2023/11/03 01:24:00;;;;;;;10.00;5.40;;;;;;;11.78;90.31;98507.09;105905;1258;98457;-80
2023/11/03 01:26:45;;;;;;;14.30;5.20;;;;;;;11.75;90.57;98503.44;105920;1253;99193;-78
2023/11/03 01:29:31;;;;;;;9.40;5.00;;;;;;;11.72;90.82;98496.91;105919;1253;101432;-78
2023/11/03 01:32:18;;;;;;;11.00;5.50;;;;;;;11.69;91.40;98497.52;105954;1253;100893;-79
2023/11/03 01:35:06;;;;;;;9.60;5.70;;;;;;;11.67;91.75;98494.20;105830;1257;97939;-79
2023/11/03 01:37:53;;;;;;;7.50;5.40;;;;;;;11.64;91.89;98487.96;105897;1255;97948;-79
2023/11/03 01:40:38;;;;;;;9.90;5.70;;;;;;;11.60;91.93;98482.86;105882;1254;100241;-78
2023/11/03 01:43:25;;;;;;;13.80;6.70;;;;;;;11.57;92.29;98481.41;105834;1257;102695;-79
2023/11/03 01:46:10;;;;;;;15.00;5.10;;;;;;;11.51;92.66;98475.27;105849;1257;99808;-78
2023/11/03 01:48:56;;;;;;;6.80;5.40;;;;;;;11.48;93.01;98475.86;105772;1254;99001;-79
2023/11/03 01:51:42;;;;;;;9.00;5.20;;;;;;;11.45;93.22;98470.98;105861;1253;98009;-79
2023/11/03 01:54:28;;;;;;;9.40;4.80;;;;;;;11.42;93.49;98464.08;106202;1253;98467;-78
2023/11/03 01:57:14;;;;;;;6.50;5.10;;;;;;;11.40;93.54;98461.84;105685;1259;102613;-79
2023/11/03 02:00:00;;;;;;;5.90;4.50;;;;;;;11.36;93.54;98455.45;105767;1253;99193;-78
2023/11/03 02:02:45;;;;;;;9.20;5.30;;;;;;;11.32;94.05;98448.16;105816;1253;99001;-78
2023/11/03 02:05:31;;;;;;;8.40;5.40;;;;;;;11.31;94.19;98442.45;105923;1258;97946;-79
2023/11/03 02:08:17;;;;;;;10.40;5.60;;;;;;;11.29;94.22;98435.88;105704;1254;98423;-78
2023/11/03 02:11:03;;;;;;;6.10;4.30;;;;;;;11.27;94.25;98429.36;105813;1256;101978;-78
2023/11/03 02:13:48;;;;;;;8.30;4.80;;;;;;;11.26;94.45;98430.34;105694;1253;99900;-79
2023/11/03 02:16:35;;;;;;;10.00;5.50;;;;;;;11.26;94.47;98434.64;105910;1253;97987;-78
2023/11/03 02:19:20;;;;;;;11.30;4.60;;;;;;;11.24;94.63;98435.42;105906;1254;98037;-78
2023/11/03 02:22:06;;;;;;;7.40;4.00;;;;;;;11.23;94.55;98434.87;105854;1253;98466;-78
2023/11/03 02:24:52;;;;;;;8.30;4.40;;;;;;;11.23;94.58;98437.50;105836;1253;102612;-79
2023/11/03 02:27:38;;;;;;;7.40;4.10;;;;;;;11.22;94.46;98440.20;105706;1260;100430;-78
2023/11/03 02:30:23;;;;;;;8.00;3.80;;;;;;;11.20;94.67;98444.63;105843;1254;98957;-78
2023/11/03 02:33:09;;;;;;;6.20;4.00;;;;;;;11.20;94.87;98456.52;105671;1258;97944;-79
2023/11/03 02:35:54;;;;;;;7.20;4.80;;;;;;;11.19;94.77;98462.79;105669;1258;98486;-79
2023/11/03 02:38:40;;;;;;;8.00;4.10;;;;;;;11.19;94.71;98463.33;105807;1259;103046;-78
2023/11/03 02:41:26;;;;;;;5.80;3.80;;;;;;;11.20;94.93;98465.58;105907;1261;99136;-79
2023/11/03 02:44:12;;;;;;;5.80;3.60;;;;;;;11.19;94.77;98462.35;105756;1253;98045;-79
2023/11/03 02:46:57;;;;;;;5.70;3.60;;;;;;;11.18;95.17;98468.11;105870;1258;98112;-78
2023/11/03 02:49:43;;;;;;;4.90;3.30;;;;;;;11.17;95.40;98472.45;105806;1258;98615;-79
2023/11/03 02:52:29;;;;;;;5.50;3.30;;;;;;;11.14;95.38;98473.77;105743;1260;101398;-79
2023/11/03 02:55:15;;;;;;;7.20;3.80;;;;;;;11.13;95.63;98474.25;105903;1259;100306;-79
2023/11/03 02:58:02;;;;;;;6.60;3.70;;;;;;;11.11;95.63;98472.89;105866;1259;99170;-78
2023/11/03 03:00:48;;;;;;;6.90;4.00;;;;;;;11.10;95.89;98470.88;105803;1260;98047;-79
2023/11/03 03:03:35;;;;;;;8.70;4.70;;;;;;;11.11;96.06;98470.73;105769;1254;98485;-78
2023/11/03 03:06:21;;;;;;;7.40;3.90;;;;;;;11.10;96.48;98465.98;105868;1259;101365;-80
2023/11/03 03:09:08;;;;;;;7.30;4.50;;;;;;;11.08;96.56;98459.35;105949;1253;99586;-79
2023/11/03 03:11:53;;;;;;;9.00;5.20;;;;;;;11.07;96.77;98455.83;105853;1253;99125;-79
2023/11/03 03:14:39;;;;;;;6.70;3.80;;;;;;;11.06;96.81;98454.62;105966;1253;98069;-79
2023/11/03 03:17:24;;;;;;;6.10;3.60;;;;;;;11.04;97.05;98444.93;105975;1257;97955;-80
2023/11/03 03:20:10;;;;;;;7.60;3.90;;;;;;;11.02;97.16;98442.93;105908;1257;101343;-79
2023/11/03 03:22:55;;;;;;;6.00;3.50;;;;;;;11.01;97.51;98444.30;105909;1253;99814;-79
2023/11/03 03:25:41;;;;;;;6.60;3.70;;;;;;;11.01;97.72;98439.10;105645;1260;98991;-79
2023/11/03 03:28:27;;;;;;;8.40;4.00;;;;;;;11.01;97.74;98430.05;105950;1257;98008;-79
2023/11/03 03:31:12;;;;;;;7.10;3.80;;;;;;;11.00;97.76;98425.38;105919;1257;98503;-79
2023/11/03 03:33:57;;;;;;;5.50;3.50;;;;;;;10.99;97.84;98421.16;105878;1253;101347;-78
2023/11/03 03:36:43;;;;;;;6.70;4.10;;;;;;;10.98;97.86;98417.71;105917;1253;99153;-79
2023/11/03 03:39:29;;;;;;;6.60;3.80;;;;;;;10.98;98.05;98410.75;105726;1257;99068;-78
2023/11/03 03:42:15;;;;;;;6.10;3.70;;;;;;;10.97;97.95;98399.72;105699;1257;97882;-79
2023/11/03 03:45:00;;;;;;;5.40;3.70;;;;;;;10.97;97.79;98386.25;105697;1257;98498;-78
2023/11/03 03:47:46;;;;;;;6.70;3.30;;;;;;;10.97;97.58;98383.58;105946;1258;101411;-79
2023/11/03 03:50:32;;;;;;;7.60;4.50;;;;;;;10.96;97.48;98372.96;105854;1257;108702;-79
2023/11/03 03:53:18;;;;;;;5.20;3.30;;;;;;;10.95;97.47;98363.09;105838;1257;98482;-79
2023/11/03 03:56:04;;;;;;;6.00;3.90;;;;;;;10.96;97.70;98355.61;106050;1257;97956;-78
2023/11/03 03:58:49;;;;;;;5.70;3.50;;;;;;;10.97;97.54;98346.35;105928;1259;97979;-80
2023/11/03 04:01:35;;;;;;;5.60;3.70;;;;;;;10.96;97.56;98338.73;105930;1258;101393;-79
2023/11/03 04:04:21;;;;;;;8.80;3.10;;;;;;;10.95;97.38;98327.67;105925;1256;99150;-78
2023/11/03 04:07:06;;;;;;;5.50;3.80;;;;;;;10.94;97.41;98327.19;105877;1254;99058;-81
2023/11/03 04:09:52;;;;;;;7.80;3.80;;;;;;;10.94;97.46;98323.91;105747;1259;98585;-79
2023/11/03 04:12:37;;;;;;;8.20;3.50;;;;;;;10.94;97.50;98325.80;105952;1256;98471;-79
2023/11/03 04:15:23;;;;;;;5.90;3.50;;;;;;;10.93;97.45;98327.27;106008;1259;103189;-79
2023/11/03 04:18:08;;;;;;;4.90;3.60;;;;;;;10.92;97.37;98331.59;105978;1253;99126;-79
2023/11/03 04:20:54;;;;;;;4.80;3.30;;;;;;;10.92;97.46;98336.41;105801;1253;97963;-80
2023/11/03 04:23:39;;;;;;;6.60;3.60;;;;;;;10.94;97.56;98335.69;105808;1253;97955;-79
2023/11/03 04:26:25;;;;;;;6.20;3.90;;;;;;;10.95;97.91;98332.48;105934;1255;98573;-79
2023/11/03 04:29:10;;;;;;;5.20;4.20;;;;;;;10.94;97.85;98323.98;105928;1259;101340;-80
2023/11/03 04:31:56;;;;;;;5.60;3.70;;;;;;;10.92;98.21;98315.73;105759;1253;99226;-78
2023/11/03 04:34:42;;;;;;;8.10;3.40;;;;;;;10.90;98.29;98311.20;105870;1257;97859;-78
2023/11/03 04:37:27;;;;;;;5.30;3.60;;;;;;;10.87;98.02;98303.61;105890;1259;97861;-80
2023/11/03 04:40:13;;;;;;;6.90;3.80;;;;;;;10.86;98.20;98297.91;105947;1258;98380;-80
2023/11/03 04:42:59;;;;;;;4.50;3.00;;;;;;;10.83;98.09;98297.83;105926;1259;101387;-79
2023/11/03 04:45:45;;;;;;;4.90;3.10;;;;;;;10.82;98.48;98303.14;105990;1258;99126;-79
2023/11/03 04:48:31;;;;;;;8.60;3.80;;;;;;;10.82;98.79;98297.67;105909;1254;98800;-79
2023/11/03 04:51:16;;;;;;;6.10;3.30;;;;;;;10.80;98.97;98297.29;105937;1252;97748;-79
2023/11/03 04:54:03;;;;;;;8.00;3.10;;;;;;;10.77;99.15;98288.71;105928;1255;98459;-79
2023/11/03 04:56:49;;;;;;;6.40;3.10;;;;;;;10.73;99.42;98280.36;105789;1267;101488;-79
2023/11/03 04:59:36;;;;;;;5.10;3.30;;;;;;;10.73;99.49;98281.35;105858;1266;99075;-79
2023/11/03 05:02:21;;;;;;;4.40;3.20;;;;;;;10.70;99.60;98286.63;105904;1257;98035;-78
2023/11/03 05:05:09;;;;;;;7.50;3.60;;;;;;;10.68;99.75;98292.52;105926;1259;97957;-78
2023/11/03 05:07:54;;;;;;;5.60;3.20;;;;;;;10.65;99.96;98283.23;106053;1254;98588;-79
2023/11/03 05:10:41;;;;;;;7.40;4.00;;;;;;;10.63;99.96;98277.73;105868;1264;101431;-78
2023/11/03 05:13:27;;;;;;;4.20;3.40;;;;;;;10.60;99.97;98276.29;105970;1258;99148;-80
2023/11/03 05:16:14;;;;;;;6.50;3.30;;;;;;;10.58;100.00;98271.77;105886;1256;100022;-79
2023/11/03 05:19:00;;;;;;;7.90;3.60;;;;;;;10.58;100.00;98267.81;105971;1254;97865;-79
2023/11/03 05:21:45;;;;;;;7.30;3.40;;;;;;;10.57;100.00;98264.45;105750;1266;98935;-80
2023/11/03 05:24:31;;;;;;;5.00;3.70;;;;;;;10.56;100.00;98263.80;105942;1257;101339;-80
2023/11/03 05:27:17;;;;;;;6.80;3.90;;;;;;;10.56;100.00;98261.17;105944;1257;99119;-79
2023/11/03 05:30:03;;;;;;;5.70;3.30;;;;;;;10.56;100.00;98253.58;105824;1257;99234;-78
2023/11/03 05:32:50;;;;;;;5.40;3.50;;;;;;;10.56;100.00;98252.86;105785;1254;98795;-79
2023/11/03 05:35:35;;;;;;;6.70;3.70;;;;;;;10.55;100.00;98248.89;105863;1258;97891;-78
2023/11/03 05:38:21;;;;;;;7.30;3.90;;;;;;;10.55;100.00;98250.83;105684;1258;101430;-79
2023/11/03 05:41:07;;;;;;;5.70;3.40;;;;;;;10.55;100.00;98248.31;105607;1255;107709;-79
2023/11/03 05:43:53;;;;;;;9.50;4.10;;;;;;;10.53;100.00;98246.46;105695;1269;98392;-80
2023/11/03 05:46:38;;;;;;;7.20;5.00;;;;;;;10.52;100.00;98241.73;105652;1255;98038;-79
2023/11/03 05:49:24;;;;;;;7.70;4.00;;;;;;;10.50;100.00;98242.83;105955;1259;98640;-80
2023/11/03 05:52:10;;;;;;;7.40;4.10;;;;;;;10.49;100.00;98244.52;106349;1262;101420;-78
2023/11/03 05:54:56;;;;;;;7.20;3.50;;;;;;;10.47;100.00;98239.94;105974;1254;99243;-80
2023/11/03 05:57:42;;;;;;;7.40;3.60;;;;;;;10.47;100.00;98229.81;106305;1259;97949;-79
2023/11/03 06:00:29;;;;;;;7.80;4.00;;;;;;;10.45;100.00;98224.39;105987;1261;98094;-78
2023/11/03 06:03:15;;;;;;;7.30;3.80;;;;;;;10.44;100.00;98221.70;105503;1259;99007;-78
2023/11/03 06:06:02;;;;;;;6.40;3.80;;;;;;;10.44;100.00;98214.89;106158;1259;102578;-78
2023/11/03 06:08:47;;;;;;;6.50;3.90;;;;;;;10.44;100.00;98219.92;106224;1259;100450;-79
2023/11/03 06:11:33;;;;;;;7.10;3.60;;;;;;;10.45;100.00;98223.41;105864;1261;97900;-80
2023/11/03 06:14:18;;;;;;;5.80;4.10;;;;;;;10.47;100.00;98217.92;106040;1256;98044;-81
2023/11/03 06:17:05;;;;;;;7.30;3.90;;;;;;;10.47;100.00;98214.83;106114;1258;97851;-79
2023/11/03 06:19:50;;;;;;;5.20;3.60;;;;;;;10.47;100.00;98214.41;105713;1261;102586;-79
2023/11/03 06:22:36;;;;;;;5.20;3.40;;;;;;;10.48;100.00;98225.22;105716;1257;99141;-79
2023/11/03 06:25:21;;;;;;;6.40;4.30;;;;;;;10.48;100.00;98225.50;105779;1255;97960;-79
2023/11/03 06:28:07;;;;;;;6.30;4.10;;;;;;;10.49;100.00;98215.04;106233;1254;97894;-80
2023/11/03 06:30:53;;;;;;;13.00;4.60;;;;;;;10.51;100.00;98205.42;106521;1257;97954;-80
2023/11/03 06:33:39;;;;;;;6.70;3.90;;;;;;;10.53;100.00;98195.02;106406;1258;102073;-80
2023/11/03 06:36:24;;;;;;;8.40;4.10;;;;;;;10.54;100.00;98183.69;106150;1264;100409;-78
2023/11/03 06:39:11;;;;;;;6.20;4.20;;;;;;;10.56;100.00;98178.73;105909;1254;98666;-78
2023/11/03 06:41:56;;;;;;;5.30;4.10;;;;;;;10.59;100.00;98179.69;105707;1254;97980;-80
2023/11/03 06:44:42;;;;;;;7.70;3.70;;;;;;;10.61;100.00;98178.70;105712;1260;98912;-80
2023/11/03 06:47:27;;;;;;;6.70;3.80;;;;;;;10.63;100.00;98180.45;105652;1260;102412;-79
2023/11/03 06:50:13;;;;;;;7.00;3.60;;;;;;;10.65;100.00;98181.30;105915;1259;100723;-79
2023/11/03 06:52:59;;;;;;;7.50;4.80;;;;;;;10.68;100.00;98177.89;105602;1260;99011;-80
2023/11/03 06:55:44;;;;;;;4.60;3.40;;;;;;;10.70;100.00;98183.17;105847;1254;97857;-81
2023/11/03 06:58:32;;;;;;;5.60;3.50;;;;;;;10.73;100.00;98186.52;105923;1259;97872;-80
2023/11/03 07:01:18;;;;;;;6.80;4.30;;;;;;;10.75;100.00;98185.98;106188;1253;102626;-80
2023/11/03 07:04:04;;;;;;;9.40;4.70;;;;;;;10.78;100.00;98183.34;105898;1254;100391;-80
2023/11/03 07:06:50;;;;;;;5.80;4.00;;;;;;;10.81;100.00;98178.77;105534;1254;98639;-79
2023/11/03 07:09:36;;;;;;;8.40;4.20;;;;;;;10.85;100.00;98169.19;105707;1257;97959;-78
2023/11/03 07:12:21;;;;;;;9.60;4.10;;;;;;;10.88;100.00;98168.27;105551;1257;98832;-80
2023/11/03 07:15:07;;;;;;;8.60;6.70;;;;;;;10.90;100.00;98153.50;105524;1260;102669;-79
2023/11/03 07:17:54;;;;;;;7.30;4.40;;;;;;;10.92;100.00;98139.60;105627;1254;100351;-78
2023/11/03 07:20:40;;;;;;;8.50;5.10;;;;;;;10.93;100.00;98136.41;105671;1258;97979;-80
2023/11/03 07:23:26;;;;;;;5.60;3.90;;;;;;;10.94;100.00;98132.99;106215;1254;97953;-80
2023/11/03 07:26:13;;;;;;;7.60;4.10;;;;;;;10.96;100.00;98137.58;106263;1257;98425;-79
2023/11/03 07:28:59;;;;;;;7.70;4.70;;;;;;;10.99;100.00;98145.84;105443;1256;102626;-78
2023/11/03 07:31:45;;;;;;;5.00;3.70;;;;;;;11.02;100.00;98148.73;105490;1257;99210;-78
2023/11/03 07:34:31;;;;;;;5.10;4.00;;;;;;;11.05;100.00;98153.75;105698;1257;97938;-80
2023/11/03 07:37:17;;;;;;;4.50;3.10;;;;;;;11.09;100.00;98155.73;106037;1258;98738;-79
2023/11/03 07:40:05;;;;;;;9.00;3.80;;;;;;;11.12;100.00;98149.73;105816;1260;98576;-81
2023/11/03 07:42:51;;;;;;;5.40;3.20;;;;;;;11.17;100.00;98153.81;106098;1257;102381;-79
2023/11/03 07:45:38;;;;;;;6.10;3.40;;;;;;;11.22;100.00;98157.66;106096;1258;100503;-81
2023/11/03 07:48:24;;;;;;;6.70;3.90;;;;;;;11.26;100.00;98160.44;106152;1257;97959;-79
2023/11/03 07:51:10;;;;;;;6.90;4.20;;;;;;;11.31;100.00;98159.69;106072;1254;97987;-81
2023/11/03 07:53:57;;;;;;;13.60;8.70;;;;;;;11.36;100.00;98162.60;106012;1254;97944;-78
2023/11/03 07:56:43;;;;;;;15.20;7.30;;;;;;;11.41;100.00;98151.02;105674;1254;102672;-79
2023/11/03 07:59:29;;;;;;;7.90;4.10;;;;;;;11.46;100.00;98156.17;105750;1257;100453;-77
2023/11/03 08:02:15;;;;;;;6.40;3.80;;;;;;;11.49;100.00;98152.18;105719;1257;98443;-80
2023/11/03 08:05:00;;;;;;;6.40;4.20;;;;;;;11.53;100.00;98149.71;105638;1254;98740;-79
2023/11/03 08:07:46;;;;;;;5.30;3.50;;;;;;;11.57;100.00;98145.45;105695;1254;98400;-78
2023/11/03 08:10:31;;;;;;;6.20;2.90;;;;;;;11.63;100.00;98137.38;105525;1257;101358;-79
2023/11/03 08:13:17;;;;;;;6.30;3.10;;;;;;;11.70;100.00;98141.65;105648;1254;99245;-79
2023/11/03 08:16:06;;;;;;;4.90;3.00;;;;;;;11.77;100.00;98142.42;105747;1256;97947;-79
2023/11/03 08:18:55;;;;;;;6.10;3.10;;;;;;;11.83;100.00;98135.30;105485;1261;98023;-79
2023/11/03 08:21:42;;;;;;;5.20;3.10;;;;;;;11.90;100.00;98133.59;105538;1257;97939;-78
2023/11/03 08:24:30;;;;;;;5.50;3.30;;;;;;;11.98;99.90;98134.78;106237;1257;102183;-80
2023/11/03 08:27:16;;;;;;;7.10;2.70;;;;;;;12.07;99.48;98130.61;105840;1254;99125;-79
2023/11/03 08:30:04;;;;;;;7.00;3.40;;;;;;;12.13;98.97;98130.02;105923;1260;99341;-79
2023/11/03 08:32:50;;;;;;;5.70;3.10;;;;;;;12.18;98.45;98131.19;105761;1257;97887;-80
2023/11/03 08:35:36;;;;;;;7.40;3.40;;;;;;;12.22;97.93;98128.38;105740;1255;99775;-79
2023/11/03 08:38:21;;;;;;;5.00;3.20;;;;;;;12.26;97.45;98122.77;105455;1258;102370;-79
2023/11/03 08:41:09;;;;;;;5.30;3.40;;;;;;;12.31;97.09;98118.30;105706;1255;99131;-79
2023/11/03 08:43:54;;;;;;;9.20;3.00;;;;;;;12.36;96.94;98114.47;105641;1253;97870;-79
2023/11/03 08:46:40;;;;;;;5.20;3.00;;;;;;;12.40;96.60;98115.89;105635;1258;99259;-80
2023/11/03 08:49:27;;;;;;;8.30;3.50;;;;;;;12.46;96.28;98118.34;105758;1257;98008;-79
2023/11/03 08:52:13;;;;;;;6.20;3.40;;;;;;;12.50;95.60;98123.15;105734;1254;102342;-79
2023/11/03 08:54:59;;;;;;;5.90;3.10;;;;;;;12.54;95.53;98128.40;105693;1262;99409;-79
2023/11/03 08:57:45;;;;;;;4.70;2.70;;;;;;;12.57;95.19;98124.60;105689;1257;97874;-79
2023/11/03 09:00:31;;;;;;;5.50;3.10;;;;;;;12.60;94.76;98119.35;105658;1254;99125;-81
2023/11/03 09:03:19;;;;;;;6.90;3.40;;;;;;;12.64;94.22;98117.11;105809;1255;98392;-79
2023/11/03 09:06:05;;;;;;;8.00;3.20;;;;;;;12.68;93.75;98117.89;106125;1254;109957;-77
2023/11/03 09:08:50;;;;;;;8.00;2.90;;;;;;;12.72;93.76;98134.89;105719;1257;99131;-78
2023/11/03 09:11:36;;;;;;;12.00;3.60;;;;;;;12.74;93.51;98160.36;105683;1257;98721;-79
2023/11/03 09:14:25;;;;;;;5.50;3.30;;;;;;;12.76;93.15;98163.60;105724;1257;99221;-80
2023/11/03 09:17:10;;;;;;;6.10;3.00;;;;;;;12.79;92.97;98166.46;105891;1254;98367;-80
2023/11/03 09:19:58;;;;;;;7.40;2.90;;;;;;;12.80;92.47;98161.27;105629;1256;101295;-80
2023/11/03 09:22:44;;;;;;;6.00;3.00;;;;;;;12.82;92.61;98161.77;105707;1257;99705;-80
2023/11/03 09:25:30;;;;;;;9.10;3.50;;;;;;;12.84;92.51;98154.09;105738;1254;98707;-79
2023/11/03 09:28:16;;;;;;;7.90;3.60;;;;;;;12.86;92.49;98147.27;105719;1256;97863;-79
2023/11/03 09:31:02;;;;;;;6.30;2.90;;;;;;;12.89;92.29;98138.21;105681;1256;97882;-79
2023/11/03 09:33:47;;;;;;;5.20;3.20;;;;;;;12.93;92.07;98143.06;105625;1260;102606;-79
2023/11/03 09:36:33;;;;;;;5.40;2.70;;;;;;;12.98;92.26;98141.09;105694;1254;99965;-79
2023/11/03 09:39:18;;;;;;;8.20;3.90;;;;;;;13.03;91.98;98123.06;105639;1257;98137;-79
2023/11/03 09:42:05;;;;;;;3.60;2.50;;;;;;;13.08;91.82;98117.09;105656;1257;97968;-79
2023/11/03 09:44:50;;;;;;;6.90;3.20;;;;;;;13.13;91.70;98110.61;105681;1260;98380;-79
2023/11/03 09:47:37;;;;;;;7.00;3.60;;;;;;;13.19;91.76;98106.23;105622;1257;101373;-79
2023/11/03 09:50:24;;;;;;;7.80;4.70;;;;;;;13.22;91.32;98103.60;105583;1260;99787;-79
2023/11/03 09:53:20;;;;;;;5.50;3.50;;;;;;;13.25;90.93;98095.92;105862;1254;99001;-79
2023/11/03 09:56:07;;;;;;;6.60;4.10;;;;;;;13.27;90.63;98086.63;105785;1254;97943;-79
2023/11/03 09:58:53;;;;;;;7.30;3.00;;;;;;;13.29;90.65;98086.36;105801;1257;97882;-80
2023/11/03 10:01:38;;;;;;;9.00;3.50;;;;;;;13.32;90.75;98086.10;105709;1257;102628;-78
2023/11/03 10:04:24;;;;;;;6.90;3.10;;;;;;;13.35;90.33;98075.02;105705;1256;99135;-79
2023/11/03 10:07:11;;;;;;;4.70;3.00;;;;;;;13.37;90.32;98070.48;105774;1253;99351;-79
2023/11/03 10:09:56;;;;;;;6.80;3.40;;;;;;;13.40;90.31;98064.46;105865;1254;97952;-80
2023/11/03 10:12:43;;;;;;;9.10;3.30;;;;;;;13.42;89.92;98064.89;106009;1257;98463;-78
2023/11/03 10:15:29;;;;;;;8.50;3.20;;;;;;;13.45;89.97;98059.83;105687;1255;101464;-82
2023/11/03 10:18:15;;;;;;;5.00;3.10;;;;;;;13.47;89.93;98054.45;105769;1254;100455;-80
2023/11/03 10:21:00;;;;;;;6.80;3.30;;;;;;;13.48;89.74;98049.35;105708;1261;106409;-80
2023/11/03 10:23:47;;;;;;;5.70;3.30;;;;;;;13.50;90.18;98048.20;106508;1252;99358;-88
2023/11/03 10:26:34;;;;;;;6.60;3.30;;;;;;;13.51;90.26;98047.58;106245;1253;98573;-86
2023/11/03 10:29:19;;;;;;;4.30;3.10;;;;;;;13.53;90.37;98042.30;106341;1253;102782;-88
2023/11/03 10:32:12;;;;;;;5.60;3.20;;;;;;;13.56;89.93;98038.97;106216;1254;99349;-84
2023/11/03 10:35:01;;;;;;;4.60;3.00;;;;;;;13.61;89.90;98035.11;106614;1253;98929;-88
2023/11/03 10:37:48;;;;;;;6.50;3.60;;;;;;;13.65;89.81;98026.95;106488;1254;97953;-91
2023/11/03 10:40:33;;;;;;;8.00;3.80;;;;;;;13.70;89.21;98027.67;106536;1258;101206;-85
2023/11/03 10:43:23;;;;;;;6.20;3.40;;;;;;;13.73;89.12;98026.50;106464;1253;101398;-85
2023/11/03 10:46:29;;;;;;;7.40;3.10;;;;;;;13.75;89.25;98020.69;106607;1254;100566;-81
2023/11/03 10:49:29;;;;;;;4.90;3.60;;;;;;;13.76;88.83;98020.54;106714;1255;99215;-80
2023/11/03 10:52:28;;;;;;;8.10;3.70;;;;;;;13.76;89.06;98014.18;106725;1256;97972;-80
2023/11/03 10:55:14;;;;;;;10.70;4.70;;;;;;;13.74;89.05;98009.98;106699;1254;98373;-81
2023/11/03 10:58:02;;;;;;;5.90;3.70;;;;;;;13.72;89.30;98008.70;106525;1254;101361;-80
2023/11/03 11:00:54;;;;;;;6.00;3.50;;;;;;;13.69;89.06;98003.63;106810;1254;100023;-81
2023/11/03 11:03:49;;;;;;;6.70;3.60;;;;;;;13.66;88.77;97997.77;106772;1257;98018;-80
2023/11/03 11:06:43;;;;;;;8.70;4.10;;;;;;;13.63;88.94;97987.27;106774;1257;97966;-80
2023/11/03 11:09:44;;;;;;;10.40;4.30;;;;;;;13.62;89.40;97978.52;106771;1254;97946;-80
2023/11/03 11:12:47;;;;;;;11.50;5.50;;;;;;;13.61;89.63;97976.16;106823;1254;101327;-81
2023/11/03 11:15:32;;;;;;;8.20;4.40;;;;;;;13.57;89.75;97978.23;106334;1254;100370;-80
2023/11/03 11:18:18;;;;;;;11.70;5.20;;;;;;;13.53;89.39;97979.53;106999;1253;97489;-80
2023/11/03 11:21:08;;;;;;;7.70;4.50;;;;;;;13.48;89.49;97977.17;106860;1254;97957;-80
2023/11/03 11:23:55;;;;;;;11.00;5.10;;;;;;;13.43;89.23;97979.05;106142;1253;98469;-79
2023/11/03 11:26:41;;;;;;;8.40;5.10;;;;;;;13.39;89.51;97980.62;105665;1256;102669;-79
2023/11/03 11:29:28;;;;;;;13.30;5.60;;;;;;;13.35;89.56;97982.44;105919;1254;98961;-79
2023/11/03 11:32:15;;;;;;;7.60;4.80;;;;;;;13.33;89.47;97978.77;105801;1257;99023;-80
2023/11/03 11:35:01;;;;;;;8.90;5.40;;;;;;;13.31;89.74;97971.94;105943;1256;97874;-79
2023/11/03 11:37:47;;;;;;;11.10;5.50;;;;;;;13.27;89.96;97972.38;105805;1257;97968;-79
2023/11/03 11:40:33;;;;;;;11.40;5.90;;;;;;;13.25;90.13;97976.02;106685;1256;101323;-80
2023/11/03 11:43:26;;;;;;;12.60;6.30;;;;;;;13.22;90.62;97967.58;106650;1255;99072;-80
2023/11/03 11:46:12;;;;;;;9.70;5.70;;;;;;;13.22;91.11;97961.94;106856;1253;98673;-80
2023/11/03 11:49:01;;;;;;;13.30;6.30;;;;;;;13.20;90.73;97962.59;106625;1257;97957;-80
2023/11/03 11:51:48;;;;;;;9.90;5.80;;;;;;;13.19;90.67;97963.22;106840;1253;99587;-80
2023/11/03 11:54:34;;;;;;;8.70;5.70;;;;;;;13.18;90.92;97958.65;106809;1256;102558;-80
2023/11/03 11:57:20;;;;;;;11.40;5.40;;;;;;;13.19;90.96;97948.77;106862;1253;99631;-80
2023/11/03 12:00:07;;;;;;;24.10;16.10;;;;;;;13.21;91.14;97940.38;106768;1255;98991;-80
2023/11/03 12:02:55;;;;;;;21.00;17.50;;;;;;;13.23;91.07;97938.91;106732;1253;97880;-80
2023/11/03 12:05:41;;;;;;;14.10;10.00;;;;;;;13.26;90.84;97930.11;106764;1253;97855;-80
2023/11/03 12:08:27;;;;;;;9.50;6.10;;;;;;;13.30;90.91;97928.39;106865;1255;101502;-80
2023/11/03 12:11:15;;;;;;;14.60;6.20;;;;;;;13.35;90.76;97925.59;106679;1257;100388;-80
2023/11/03 12:14:00;;;;;;;13.40;6.00;;;;;;;13.39;90.63;97927.52;106454;1253;97970;-79
2023/11/03 12:16:46;;;;;;;17.60;7.70;;;;;;;13.44;90.56;97924.57;105860;1258;98038;-79
2023/11/03 12:19:32;;;;;;;17.20;8.50;;;;;;;13.49;90.27;97924.67;106837;1257;97897;-80
2023/11/03 12:22:19;;;;;;;12.90;7.40;;;;;;;13.53;89.82;97925.95;106668;1253;102095;-80
2023/11/03 12:25:06;;;;;;;15.30;6.80;;;;;;;13.55;89.60;97927.42;105882;1254;99774;-79
2023/11/03 12:27:58;;;;;;;22.70;9.00;;;;;;;13.56;89.06;97932.41;106333;1260;97911;-80
2023/11/03 12:30:50;;;;;;;9.20;6.30;;;;;;;13.57;88.55;97930.20;105922;1258;97988;-79
2023/11/03 12:33:36;;;;;;;14.10;7.40;;;;;;;13.57;88.52;97926.02;105948;1257;98371;-80
2023/11/03 12:36:26;;;;;;;10.40;6.80;;;;;;;13.58;88.31;97921.13;105950;1257;102645;-79
2023/11/03 12:39:12;;;;;;;12.60;7.50;;;;;;;13.58;88.34;97920.59;105983;1257;99288;-80
2023/11/03 12:42:09;;;;;;;16.50;9.60;;;;;;;13.57;87.82;97909.13;105875;1253;98905;-80
2023/11/03 12:45:01;;;;;;;14.00;6.70;;;;;;;13.57;87.74;97912.19;105827;1252;97974;-80
2023/11/03 12:47:49;;;;;;;9.70;7.00;;;;;;;13.56;87.74;97907.89;105826;1253;97863;-80